createdAt,value
2019-05-13T00:00:34.142Z,86.10
2019-05-13T00:03:03.809Z,87.00
2019-05-13T00:05:33.913Z,86.30
2019-05-13T00:08:03.466Z,86.40
2019-05-13T00:10:34.751Z,86.50
2019-05-13T00:13:04.388Z,86.50
2019-05-13T00:15:34.027Z,86.50
2019-05-13T00:18:03.978Z,86.90
2019-05-13T00:20:33.748Z,86.80
2019-05-13T00:23:03.969Z,86.70
2019-05-13T00:25:34.008Z,87.00
2019-05-13T00:28:04.038Z,86.90
2019-05-13T00:30:34.318Z,86.90
2019-05-13T00:33:03.839Z,86.90
2019-05-13T00:35:33.871Z,87.00
2019-05-13T00:38:03.883Z,87.20
2019-05-13T00:40:33.833Z,87.20
2019-05-13T00:43:03.878Z,87.30
2019-05-13T00:45:33.919Z,87.30
2019-05-13T00:48:04.491Z,88.00
2019-05-13T00:50:33.666Z,88.40
2019-05-13T00:53:04.282Z,88.90
2019-05-13T00:55:34.309Z,89.00
2019-05-13T00:58:04.491Z,88.90
2019-05-13T01:00:34.084Z,89.10
2019-05-13T01:03:04.060Z,89.30
2019-05-13T01:05:34.176Z,89.20
2019-05-13T01:08:04.186Z,89.20
2019-05-13T01:10:34.569Z,88.90
2019-05-13T01:13:04.726Z,88.70
2019-05-13T01:15:34.514Z,88.70
2019-05-13T01:18:03.900Z,88.70
2019-05-13T01:20:34.386Z,88.90
2019-05-13T01:23:03.918Z,88.80
2019-05-13T01:25:34.117Z,88.60
2019-05-13T01:28:04.493Z,89.10
2019-05-13T01:30:34.608Z,89.40
2019-05-13T01:33:04.328Z,89.40
2019-05-13T01:35:34.176Z,89.70
2019-05-13T01:38:04.640Z,89.70
2019-05-13T01:40:34.698Z,89.70
2019-05-13T01:43:03.944Z,89.80
2019-05-13T01:45:33.778Z,89.90
2019-05-13T01:48:07.061Z,90.20
2019-05-13T01:50:33.982Z,90.20
2019-05-13T01:53:04.324Z,90.40
2019-05-13T01:55:34.115Z,90.30
2019-05-13T01:58:04.361Z,90.40
2019-05-13T02:00:35.400Z,90.50
2019-05-13T02:03:04.046Z,90.50
2019-05-13T02:05:34.032Z,90.50
2019-05-13T02:08:04.292Z,90.50
2019-05-13T02:10:53.830Z,90.50
2019-05-13T02:13:24.022Z,90.40
2019-05-13T02:15:54.160Z,90.30
2019-05-13T02:18:24.430Z,90.40
2019-05-13T02:20:55.338Z,90.40
2019-05-13T02:23:23.784Z,90.30
2019-05-13T02:25:54.259Z,90.10
2019-05-13T02:28:24.775Z,90.00
2019-05-13T02:30:56.159Z,90.20
2019-05-13T02:33:24.349Z,90.10
2019-05-13T02:35:53.681Z,90.00
2019-05-13T02:38:28.769Z,90.00
2019-05-13T02:40:53.400Z,90.20
2019-05-13T02:43:23.866Z,89.80
2019-05-13T02:45:53.893Z,89.30
2019-05-13T02:48:23.774Z,89.40
2019-05-13T02:50:53.773Z,89.10
2019-05-13T02:53:23.898Z,89.10
2019-05-13T02:55:53.305Z,88.60
2019-05-13T02:58:24.114Z,88.60
2019-05-13T03:00:53.736Z,88.90
2019-05-13T03:03:23.510Z,88.70
2019-05-13T03:05:53.307Z,88.50
2019-05-13T03:08:38.569Z,88.30
2019-05-13T03:10:53.549Z,88.20
2019-05-13T03:13:23.724Z,88.00
2019-05-13T03:16:02.798Z,88.30
2019-05-13T03:18:33.507Z,88.20
2019-05-13T03:21:03.287Z,88.30
2019-05-13T03:23:32.724Z,88.20
2019-05-13T03:26:02.879Z,87.60
2019-05-13T03:28:33.509Z,87.90
2019-05-13T03:31:06.806Z,87.20
2019-05-13T03:33:36.906Z,87.30
2019-05-13T03:36:06.864Z,87.60
2019-05-13T03:38:33.509Z,87.60
2019-05-13T03:41:03.263Z,87.50
2019-05-13T03:43:33.314Z,87.80
2019-05-13T03:46:03.488Z,87.30
2019-05-13T03:48:34.511Z,87.80
2019-05-13T03:51:03.298Z,87.60
2019-05-13T03:53:32.768Z,86.90
2019-05-13T03:56:02.612Z,87.00
2019-05-13T03:58:32.525Z,86.90
2019-05-13T04:01:02.801Z,86.50
2019-05-13T04:03:33.134Z,86.50
2019-05-13T04:06:03.610Z,86.50
2019-05-13T04:08:32.771Z,86.70
2019-05-13T04:11:02.895Z,86.80
2019-05-13T04:13:33.474Z,86.50
2019-05-13T04:16:03.881Z,86.00
2019-05-13T04:18:32.732Z,84.90
2019-05-13T04:21:02.733Z,84.70
2019-05-13T04:23:32.454Z,84.70
2019-05-13T04:26:03.009Z,84.10
2019-05-13T04:28:33.129Z,83.90
2019-05-13T04:31:03.564Z,83.90
2019-05-13T04:33:33.404Z,84.80
2019-05-13T04:36:02.835Z,83.30
2019-05-13T04:38:33.081Z,82.70
2019-05-13T04:41:03.449Z,81.70
2019-05-13T04:43:34.744Z,81.70
2019-05-13T04:46:02.971Z,82.10
2019-05-13T04:48:34.071Z,82.00
2019-05-13T04:51:03.053Z,81.40
2019-05-13T04:53:33.377Z,81.10
2019-05-13T04:56:03.340Z,80.90
2019-05-13T04:58:32.621Z,80.90
2019-05-13T05:01:14.145Z,81.30
2019-05-13T05:03:52.770Z,83.60
2019-05-13T05:06:34.587Z,82.90
2019-05-13T05:09:12.567Z,80.80
2019-05-13T05:12:07.212Z,80.50
2019-05-13T05:15:12.110Z,80.40
2019-05-13T05:17:58.710Z,81.20
2019-05-13T05:20:33.371Z,81.40
2019-05-13T05:23:21.428Z,81.80
2019-05-13T05:26:27.013Z,81.00
2019-05-13T05:29:33.814Z,80.70
2019-05-13T05:32:26.401Z,80.40
2019-05-13T05:35:25.644Z,79.60
2019-05-13T05:38:16.638Z,80.00
2019-05-13T05:40:45.338Z,79.70
2019-05-13T05:43:14.619Z,79.00
2019-05-13T05:45:43.323Z,79.00
2019-05-13T05:48:12.008Z,79.30
2019-05-13T05:50:42.410Z,78.90
2019-05-13T05:53:11.918Z,77.90
2019-05-13T05:55:41.635Z,77.40
2019-05-13T05:58:12.080Z,77.20
2019-05-13T06:00:41.480Z,76.40
2019-05-13T06:03:13.546Z,76.40
2019-05-13T06:05:41.943Z,76.00
2019-05-13T06:08:11.433Z,76.20
2019-05-13T06:10:49.155Z,75.00
2019-05-13T06:13:12.210Z,75.30
2019-05-13T06:15:42.111Z,75.60
2019-05-13T06:18:11.706Z,74.90
2019-05-13T06:20:41.798Z,75.00
2019-05-13T06:23:11.457Z,73.10
2019-05-13T06:25:42.778Z,73.60
2019-05-13T06:28:12.402Z,73.30
2019-05-13T06:30:42.077Z,73.30
2019-05-13T06:33:12.008Z,73.20
2019-05-13T06:35:44.516Z,73.90
2019-05-13T06:38:11.865Z,72.50
2019-05-13T06:40:42.425Z,72.10
2019-05-13T06:43:12.022Z,71.00
2019-05-13T06:45:42.050Z,70.40
2019-05-13T06:48:11.764Z,70.30
2019-05-13T06:50:41.529Z,70.80
2019-05-13T06:53:12.624Z,69.50
2019-05-13T06:55:41.842Z,69.40
2019-05-13T06:58:11.404Z,69.30
2019-05-13T07:00:42.783Z,69.00
2019-05-13T07:03:12.715Z,68.20
2019-05-13T07:05:42.325Z,66.70
2019-05-13T07:08:12.058Z,67.30
2019-05-13T07:10:41.580Z,67.50
2019-05-13T07:13:11.378Z,67.60
2019-05-13T07:15:41.615Z,68.30
2019-05-13T07:18:11.695Z,67.90
2019-05-13T07:20:42.589Z,67.70
2019-05-13T07:23:12.175Z,68.30
2019-05-13T07:25:42.052Z,67.60
2019-05-13T07:28:12.615Z,67.10
2019-05-13T07:30:45.552Z,66.50
2019-05-13T07:33:14.228Z,66.00
2019-05-13T07:35:45.086Z,66.90
2019-05-13T07:38:13.315Z,64.40
2019-05-13T07:40:42.088Z,65.30
2019-05-13T07:43:12.303Z,65.90
2019-05-13T07:45:42.341Z,65.50
2019-05-13T07:48:20.568Z,65.60
2019-05-13T07:50:53.616Z,66.70
2019-05-13T07:53:18.229Z,66.00
2019-05-13T07:55:42.359Z,65.10
2019-05-13T07:58:11.706Z,66.30
2019-05-13T08:00:41.912Z,65.40
2019-05-13T08:03:12.450Z,64.20
2019-05-13T08:05:41.963Z,63.80
2019-05-13T08:08:11.670Z,65.30
2019-05-13T08:10:41.767Z,66.60
2019-05-13T08:13:11.873Z,63.80
2019-05-13T08:15:42.073Z,62.90
2019-05-13T08:18:12.175Z,63.30
2019-05-13T08:20:42.049Z,62.50
2019-05-13T08:23:11.910Z,63.40
2019-05-13T08:25:42.315Z,62.80
2019-05-13T08:28:12.486Z,63.00
2019-05-13T08:30:42.633Z,63.10
2019-05-13T08:33:12.471Z,62.90
2019-05-13T08:35:41.867Z,62.60
2019-05-13T08:38:12.076Z,62.70
2019-05-13T08:40:42.411Z,62.20
2019-05-13T08:43:12.341Z,61.90
2019-05-13T08:45:42.214Z,61.30
2019-05-13T08:48:12.721Z,60.00
2019-05-13T08:50:42.091Z,59.60
2019-05-13T08:53:12.206Z,59.10
2019-05-13T08:55:42.707Z,59.30
2019-05-13T08:58:12.452Z,59.50
2019-05-13T09:00:47.657Z,59.90
2019-05-13T09:03:17.166Z,59.60
2019-05-13T09:05:45.833Z,59.90
2019-05-13T09:08:15.370Z,59.50
2019-05-13T09:10:44.333Z,61.80
2019-05-13T09:13:13.054Z,58.50
2019-05-13T09:15:42.288Z,58.90
2019-05-13T09:18:11.483Z,60.90
2019-05-13T09:20:41.603Z,59.10
2019-05-13T09:23:11.408Z,58.60
2019-05-13T09:25:41.572Z,59.30
2019-05-13T09:28:12.493Z,59.50
2019-05-13T09:30:42.339Z,61.20
2019-05-13T09:33:11.600Z,61.70
2019-05-13T09:35:42.287Z,61.70
2019-05-13T09:38:12.697Z,59.30
2019-05-13T09:40:42.271Z,60.40
2019-05-13T09:43:11.684Z,60.20
2019-05-13T09:45:41.784Z,60.10
2019-05-13T09:48:12.936Z,61.10
2019-05-13T09:50:42.544Z,61.60
2019-05-13T09:53:11.675Z,61.30
2019-05-13T09:55:41.481Z,59.90
2019-05-13T09:58:11.814Z,60.70
2019-05-13T10:00:42.104Z,58.60
2019-05-13T10:03:13.612Z,58.90
2019-05-13T10:05:41.468Z,58.50
2019-05-13T10:08:12.495Z,58.70
2019-05-13T10:10:42.349Z,58.50
2019-05-13T10:13:13.049Z,57.80
2019-05-13T10:15:42.027Z,57.10
2019-05-13T10:18:12.602Z,57.80
2019-05-13T10:20:52.863Z,56.40
2019-05-13T10:23:22.114Z,56.00
2019-05-13T10:25:52.516Z,57.80
2019-05-13T10:28:21.889Z,57.10
2019-05-13T10:30:53.087Z,56.40
2019-05-13T10:33:22.121Z,54.70
2019-05-13T10:35:52.323Z,54.80
2019-05-13T10:38:23.706Z,53.30
2019-05-13T10:40:52.239Z,53.80
2019-05-13T10:43:31.007Z,52.70
2019-05-13T10:45:52.255Z,52.70
2019-05-13T10:48:22.074Z,50.70
2019-05-13T10:50:52.857Z,50.20
2019-05-13T10:53:22.009Z,49.20
2019-05-13T10:55:52.253Z,48.60
2019-05-13T10:58:23.326Z,48.30
2019-05-13T11:00:54.831Z,46.10
2019-05-13T11:03:23.527Z,46.20
2019-05-13T11:05:52.731Z,45.70
2019-05-13T11:08:22.435Z,47.40
2019-05-13T11:10:53.056Z,47.50
2019-05-13T11:13:23.302Z,46.80
2019-05-13T11:15:57.806Z,47.70
2019-05-13T11:18:24.479Z,46.70
2019-05-13T11:20:52.941Z,47.90
2019-05-13T11:23:23.169Z,45.30
2019-05-13T11:25:52.435Z,46.00
2019-05-13T11:28:21.321Z,44.60
2019-05-13T11:30:51.994Z,46.00
2019-05-13T11:33:22.250Z,45.40
2019-05-13T11:35:52.391Z,47.40
2019-05-13T11:38:22.162Z,47.00
2019-05-13T11:40:52.474Z,45.90
2019-05-13T11:43:22.237Z,46.40
2019-05-13T11:45:51.874Z,45.50
2019-05-13T11:48:23.599Z,46.90
2019-05-13T11:50:53.916Z,46.40
2019-05-13T11:53:37.888Z,45.90
2019-05-13T11:55:52.418Z,47.20
2019-05-13T11:58:21.317Z,47.00
2019-05-13T12:00:58.867Z,45.20
2019-05-13T12:03:27.595Z,43.30
2019-05-13T12:05:56.277Z,43.60
2019-05-13T12:08:24.995Z,43.80
2019-05-13T12:10:53.673Z,43.60
2019-05-13T12:13:23.213Z,44.00
2019-05-13T12:15:54.395Z,42.70
2019-05-13T12:18:23.872Z,42.70
2019-05-13T12:20:53.920Z,42.50
2019-05-13T12:23:23.077Z,42.20
2019-05-13T12:25:52.863Z,42.50
2019-05-13T12:28:21.984Z,42.90
2019-05-13T12:30:53.138Z,43.90
2019-05-13T12:33:22.696Z,42.90
2019-05-13T12:35:53.180Z,44.00
2019-05-13T12:38:22.610Z,43.30
2019-05-13T12:40:52.867Z,42.70
2019-05-13T12:43:24.102Z,45.20
2019-05-13T12:45:53.338Z,42.20
2019-05-13T12:48:23.063Z,42.50
2019-05-13T12:50:53.952Z,43.40
2019-05-13T12:53:22.380Z,42.10
2019-05-13T12:55:55.694Z,41.60
2019-05-13T12:58:23.740Z,40.90
2019-05-13T13:00:53.254Z,40.00
2019-05-13T13:03:23.104Z,39.80
2019-05-13T13:05:52.489Z,40.30
2019-05-13T13:08:38.687Z,41.40
2019-05-13T13:10:53.347Z,39.50
2019-05-13T13:13:26.833Z,35.00
2019-05-13T13:15:53.082Z,31.20
2019-05-13T13:18:22.583Z,30.00
2019-05-13T13:20:58.057Z,26.20
2019-05-13T13:23:23.708Z,24.20
2019-05-13T13:25:56.678Z,23.50
2019-05-13T13:28:23.826Z,21.30
2019-05-13T13:30:53.394Z,22.10
2019-05-13T13:33:22.341Z,20.80
2019-05-13T13:35:59.545Z,21.90
2019-05-13T13:38:25.314Z,20.80
2019-05-13T13:40:53.762Z,23.50
2019-05-13T13:43:24.707Z,25.70
2019-05-13T13:46:07.194Z,26.30
2019-05-13T13:48:25.467Z,27.40
2019-05-13T13:50:55.569Z,30.30
2019-05-13T13:53:25.902Z,31.40
2019-05-13T13:55:56.050Z,29.70
2019-05-13T13:58:25.657Z,28.30
2019-05-13T14:01:06.039Z,27.90
2019-05-13T14:03:25.045Z,26.60
2019-05-13T14:05:54.283Z,25.40
2019-05-13T14:08:23.231Z,25.80
2019-05-13T14:10:51.950Z,26.80
2019-05-13T14:13:21.808Z,28.70
2019-05-13T14:15:52.779Z,30.00
2019-05-13T14:18:26.014Z,32.10
2019-05-13T14:20:52.991Z,34.10
2019-05-13T14:23:21.804Z,33.30
2019-05-13T14:25:52.882Z,32.40
2019-05-13T14:28:23.001Z,29.70
2019-05-13T14:30:51.518Z,27.00
2019-05-13T14:33:20.354Z,23.50
2019-05-13T14:35:49.112Z,23.70
2019-05-13T14:38:17.793Z,23.30
2019-05-13T14:40:46.841Z,24.60
2019-05-13T14:43:15.830Z,25.00
2019-05-13T14:45:44.559Z,26.10
2019-05-13T14:48:13.245Z,28.60
2019-05-13T14:50:42.471Z,29.50
2019-05-13T14:53:11.147Z,30.70
2019-05-13T14:55:41.958Z,29.90
2019-05-13T14:58:10.207Z,32.30
2019-05-13T15:00:38.927Z,30.00
2019-05-13T15:03:07.626Z,27.20
2019-05-13T15:05:36.356Z,24.10
2019-05-13T15:08:05.049Z,23.10
2019-05-13T15:10:33.919Z,22.90
2019-05-13T15:13:03.177Z,21.90
2019-05-13T15:15:32.021Z,22.20
2019-05-13T15:18:01.419Z,21.70
2019-05-13T15:20:32.908Z,21.60
2019-05-13T15:23:00.702Z,22.80
2019-05-13T15:25:31.377Z,24.60
2019-05-13T15:27:59.769Z,26.30
2019-05-13T15:30:28.489Z,27.30
2019-05-13T15:32:57.169Z,28.70
2019-05-13T15:35:25.951Z,29.70
2019-05-13T15:37:54.608Z,31.20
2019-05-13T15:40:23.329Z,31.20
2019-05-13T15:42:52.006Z,31.40
2019-05-13T15:45:21.271Z,32.40
2019-05-13T15:47:51.603Z,33.20
2019-05-13T15:50:21.449Z,33.00
2019-05-13T15:52:50.437Z,31.80
2019-05-13T15:55:21.202Z,32.70
2019-05-13T15:57:51.664Z,32.30
2019-05-13T16:00:21.964Z,34.50
2019-05-13T16:02:52.264Z,33.00
2019-05-13T16:05:20.603Z,34.30
2019-05-13T16:07:51.605Z,35.10
2019-05-13T16:10:19.714Z,35.30
2019-05-13T16:12:48.377Z,35.70
2019-05-13T16:15:17.095Z,36.70
2019-05-13T16:17:45.783Z,37.80
2019-05-13T16:20:14.571Z,38.00
2019-05-13T16:22:43.316Z,39.00
2019-05-13T16:25:12.358Z,37.50
2019-05-13T16:27:41.663Z,37.30
2019-05-13T16:30:11.785Z,38.50
2019-05-13T16:32:42.450Z,38.40
2019-05-13T16:35:13.421Z,38.40
2019-05-13T16:37:41.966Z,37.60
2019-05-13T16:40:12.339Z,37.90
2019-05-13T16:42:42.269Z,38.20
2019-05-13T16:45:12.603Z,37.80
2019-05-13T16:47:55.871Z,38.50
2019-05-13T16:50:11.923Z,39.10
2019-05-13T16:52:41.851Z,39.40
2019-05-13T16:55:12.869Z,39.90
2019-05-13T16:57:42.320Z,40.50
2019-05-13T17:00:11.282Z,38.70
2019-05-13T17:02:42.100Z,39.10
2019-05-13T17:05:12.050Z,40.50
2019-05-13T17:07:42.251Z,42.10
2019-05-13T17:10:12.540Z,43.70
2019-05-13T17:12:43.006Z,45.70
2019-05-13T17:15:11.880Z,47.10
2019-05-13T17:17:40.999Z,47.50
2019-05-13T17:20:12.700Z,48.00
2019-05-13T17:22:42.320Z,47.90
2019-05-13T17:25:12.574Z,48.60
2019-05-13T17:27:41.652Z,48.40
2019-05-13T17:30:11.436Z,48.40
2019-05-13T17:32:40.484Z,48.90
2019-05-13T17:35:11.651Z,48.60
2019-05-13T17:37:42.025Z,47.40
2019-05-13T17:40:11.824Z,47.80
2019-05-13T17:42:41.479Z,45.80
2019-05-13T17:45:11.270Z,45.40
2019-05-13T17:47:41.845Z,44.90
2019-05-13T17:50:11.687Z,45.40
2019-05-13T17:52:40.807Z,44.60
2019-05-13T17:55:11.535Z,44.10
2019-05-13T17:57:41.440Z,44.60
2019-05-13T18:00:10.369Z,45.30
2019-05-13T18:02:39.124Z,44.70
2019-05-13T18:05:07.832Z,44.80
2019-05-13T18:07:36.817Z,45.00
2019-05-13T18:10:06.199Z,45.30
2019-05-13T18:12:34.949Z,46.40
2019-05-13T18:15:04.530Z,47.10
2019-05-13T18:17:33.260Z,47.40
2019-05-13T18:20:02.499Z,47.90
2019-05-13T18:22:31.390Z,48.20
2019-05-13T18:25:02.384Z,48.50
2019-05-13T18:27:32.365Z,48.90
2019-05-13T18:30:02.110Z,49.30
2019-05-13T18:32:31.981Z,50.00
2019-05-13T18:35:01.654Z,50.10
2019-05-13T18:37:31.533Z,49.80
2019-05-13T18:40:02.595Z,50.20
2019-05-13T18:42:31.718Z,50.80
2019-05-13T18:45:02.197Z,50.60
2019-05-13T18:47:31.646Z,51.20
2019-05-13T18:50:02.364Z,51.10
2019-05-13T18:52:31.311Z,51.80
2019-05-13T18:55:02.031Z,51.60
2019-05-13T18:57:31.879Z,52.10
2019-05-13T19:00:02.039Z,52.30
2019-05-13T19:02:32.015Z,51.60
2019-05-13T19:05:01.389Z,52.10
2019-05-13T19:07:31.526Z,51.90
2019-05-13T19:10:02.539Z,52.00
2019-05-13T19:12:31.454Z,52.50
2019-05-13T19:15:02.411Z,53.20
2019-05-13T19:17:32.276Z,53.10
2019-05-13T19:20:01.226Z,52.80
2019-05-13T19:22:31.757Z,52.80
2019-05-13T19:25:01.137Z,53.20
2019-05-13T19:27:31.954Z,53.30
2019-05-13T19:30:01.388Z,53.80
2019-05-13T19:32:32.351Z,53.80
2019-05-13T19:35:02.563Z,54.10
2019-05-13T19:37:31.679Z,54.00
2019-05-13T19:40:01.178Z,54.50
2019-05-13T19:42:31.402Z,54.40
2019-05-13T19:45:01.896Z,54.60
2019-05-13T19:47:30.599Z,54.80
2019-05-13T19:50:01.906Z,54.80
2019-05-13T19:52:31.931Z,55.10
2019-05-13T19:55:01.749Z,55.60
2019-05-13T19:57:31.782Z,55.30
2019-05-13T20:00:01.353Z,56.70
2019-05-13T20:02:31.594Z,56.60
2019-05-13T20:05:01.207Z,56.00
2019-05-13T20:07:31.789Z,56.00
2019-05-13T20:10:02.770Z,57.40
2019-05-13T20:12:31.310Z,56.70
2019-05-13T20:15:01.427Z,56.50
2019-05-13T20:17:32.118Z,56.30
2019-05-13T20:20:02.017Z,56.10
2019-05-13T20:22:31.415Z,56.70
2019-05-13T20:25:00.227Z,56.60
2019-05-13T20:27:28.955Z,56.90
2019-05-13T20:29:57.675Z,57.70
2019-05-13T20:32:26.401Z,58.40
2019-05-13T20:34:55.108Z,58.90
2019-05-13T20:37:23.835Z,59.20
2019-05-13T20:39:52.536Z,59.20
2019-05-13T20:42:23.213Z,59.20
2019-05-13T20:44:51.612Z,59.90
2019-05-13T20:47:21.356Z,60.10
2019-05-13T20:49:59.224Z,60.30
2019-05-13T20:52:22.154Z,60.00
2019-05-13T20:54:51.264Z,60.20
2019-05-13T20:57:22.232Z,61.20
2019-05-13T20:59:51.644Z,61.00
2019-05-13T21:02:22.156Z,61.20
2019-05-13T21:04:50.834Z,61.30
2019-05-13T21:07:21.578Z,62.40
2019-05-13T21:09:51.241Z,61.70
2019-05-13T21:12:22.065Z,62.00
2019-05-13T21:14:51.264Z,62.10
2019-05-13T21:17:21.418Z,62.60
2019-05-13T21:19:52.647Z,63.10
2019-05-13T21:22:21.232Z,63.80
2019-05-13T21:24:51.487Z,63.20
2019-05-13T21:27:20.444Z,63.60
2019-05-13T21:29:49.210Z,63.90
2019-05-13T21:32:17.943Z,63.90
2019-05-13T21:34:46.625Z,64.10
2019-05-13T21:37:15.374Z,64.20
2019-05-13T21:39:44.131Z,65.20
2019-05-13T21:42:12.873Z,65.40
2019-05-13T21:44:42.032Z,65.40
2019-05-13T21:47:11.396Z,65.20
2019-05-13T21:49:42.161Z,66.40
2019-05-13T21:52:10.611Z,66.90
2019-05-13T21:54:39.299Z,66.20
2019-05-13T21:57:08.016Z,66.20
2019-05-13T21:59:36.704Z,65.50
2019-05-13T22:02:06.025Z,66.20
2019-05-13T22:04:34.711Z,65.80
2019-05-13T22:07:03.387Z,66.30
2019-05-13T22:09:32.167Z,66.40
2019-05-13T22:12:01.805Z,67.10
2019-05-13T22:14:32.030Z,67.20
2019-05-13T22:17:01.599Z,67.50
2019-05-13T22:19:31.531Z,67.80
2019-05-13T22:22:02.204Z,67.80
2019-05-13T22:24:31.374Z,67.80
2019-05-13T22:27:01.949Z,68.00
2019-05-13T22:29:32.197Z,68.30
2019-05-13T22:32:02.065Z,68.30
2019-05-13T22:34:31.952Z,68.60
2019-05-13T22:37:02.523Z,68.90
2019-05-13T22:39:34.628Z,69.00
2019-05-13T22:42:02.055Z,69.00
2019-05-13T22:44:32.435Z,69.10
2019-05-13T22:47:02.418Z,69.10
2019-05-13T22:49:31.526Z,69.20
2019-05-13T22:52:00.218Z,69.60
2019-05-13T22:54:28.944Z,69.70
2019-05-13T22:56:57.623Z,70.00
2019-05-13T23:06:24.260Z,70.40
2019-05-13T23:08:52.974Z,70.70
2019-05-13T23:11:21.986Z,70.60
2019-05-13T23:13:51.308Z,71.00
2019-05-13T23:16:22.102Z,71.00
2019-05-13T23:18:51.344Z,70.70
2019-05-13T23:21:20.126Z,71.30
2019-05-13T23:23:48.843Z,70.90
2019-05-13T23:26:17.529Z,71.20
2019-05-13T23:28:46.242Z,71.30
2019-05-13T23:31:14.922Z,71.20
2019-05-13T23:33:43.643Z,71.30
2019-05-13T23:36:12.344Z,71.20
2019-05-13T23:38:41.456Z,71.80
2019-05-13T23:41:11.447Z,72.50
2019-05-13T23:43:40.475Z,72.10
2019-05-13T23:46:11.568Z,72.50
2019-05-13T23:48:41.305Z,72.20
2019-05-13T23:51:09.905Z,72.40
2019-05-13T23:53:38.618Z,72.70
2019-05-13T23:56:07.299Z,73.00
2019-05-13T23:58:36.028Z,73.10
